sensor_id;sensor_type;location;lat;lon;timestamp;temperature;humidity
17452;DHT22;8843;48.838;9.324;2023-04-25T00:00:26;13.20;76.60
17452;DHT22;8843;48.838;9.324;2023-04-25T00:02:53;13.30;76.30
17452;DHT22;8843;48.838;9.324;2023-04-25T00:05:21;13.30;77.20
17452;DHT22;8843;48.838;9.324;2023-04-25T00:07:48;13.20;76.80
17452;DHT22;8843;48.838;9.324;2023-04-25T00:10:15;13.30;77.00
17452;DHT22;8843;48.838;9.324;2023-04-25T00:12:42;13.20;76.90
17452;DHT22;8843;48.838;9.324;2023-04-25T00:15:10;13.20;77.20
17452;DHT22;8843;48.838;9.324;2023-04-25T00:17:38;13.20;77.20
17452;DHT22;8843;48.838;9.324;2023-04-25T00:20:06;13.20;77.20
17452;DHT22;8843;48.838;9.324;2023-04-25T00:22:35;13.20;77.20
17452;DHT22;8843;48.838;9.324;2023-04-25T00:25:03;13.20;77.20
17452;DHT22;8843;48.838;9.324;2023-04-25T00:27:30;13.20;77.20
17452;DHT22;8843;48.838;9.324;2023-04-25T00:29:57;13.20;77.20
17452;DHT22;8843;48.838;9.324;2023-04-25T00:32:25;13.20;77.20
17452;DHT22;8843;48.838;9.324;2023-04-25T00:34:54;13.20;77.20
17452;DHT22;8843;48.838;9.324;2023-04-25T00:37:21;13.20;77.20
17452;DHT22;8843;48.838;9.324;2023-04-25T00:39:48;13.20;77.20
17452;DHT22;8843;48.838;9.324;2023-04-25T00:42:15;13.20;77.20
17452;DHT22;8843;48.838;9.324;2023-04-25T00:44:42;13.20;77.20
17452;DHT22;8843;48.838;9.324;2023-04-25T00:47:11;13.20;77.20
17452;DHT22;8843;48.838;9.324;2023-04-25T00:49:38;13.20;77.30
17452;DHT22;8843;48.838;9.324;2023-04-25T00:52:06;13.20;77.30
17452;DHT22;8843;48.838;9.324;2023-04-25T00:54:33;13.20;77.30
17452;DHT22;8843;48.838;9.324;2023-04-25T00:57:00;13.20;77.40
17452;DHT22;8843;48.838;9.324;2023-04-25T00:59:28;13.20;77.40
17452;DHT22;8843;48.838;9.324;2023-04-25T01:01:55;13.20;77.30
17452;DHT22;8843;48.838;9.324;2023-04-25T01:04:22;13.20;77.40
17452;DHT22;8843;48.838;9.324;2023-04-25T01:06:49;13.20;77.40
17452;DHT22;8843;48.838;9.324;2023-04-25T01:09:18;13.20;77.30
17452;DHT22;8843;48.838;9.324;2023-04-25T01:11:46;13.20;77.30
17452;DHT22;8843;48.838;9.324;2023-04-25T01:14:13;13.20;77.40
17452;DHT22;8843;48.838;9.324;2023-04-25T01:16:39;13.20;77.40
17452;DHT22;8843;48.838;9.324;2023-04-25T01:19:09;13.20;77.40
17452;DHT22;8843;48.838;9.324;2023-04-25T01:21:39;13.20;77.40
17452;DHT22;8843;48.838;9.324;2023-04-25T01:24:06;13.20;77.40
17452;DHT22;8843;48.838;9.324;2023-04-25T01:26:33;13.20;77.40
17452;DHT22;8843;48.838;9.324;2023-04-25T01:29:01;13.20;77.40
17452;DHT22;8843;48.838;9.324;2023-04-25T01:31:29;13.20;77.40
17452;DHT22;8843;48.838;9.324;2023-04-25T01:33:57;13.10;77.30
17452;DHT22;8843;48.838;9.324;2023-04-25T01:36:24;13.20;77.50
17452;DHT22;8843;48.838;9.324;2023-04-25T01:38:52;13.20;78.20
17452;DHT22;8843;48.838;9.324;2023-04-25T01:41:19;13.10;77.30
17452;DHT22;8843;48.838;9.324;2023-04-25T01:43:48;13.10;77.40
17452;DHT22;8843;48.838;9.324;2023-04-25T01:46:16;13.10;77.30
17452;DHT22;8843;48.838;9.324;2023-04-25T01:48:43;13.20;77.40
17452;DHT22;8843;48.838;9.324;2023-04-25T01:51:10;13.20;77.40
17452;DHT22;8843;48.838;9.324;2023-04-25T01:53:37;13.20;77.50
17452;DHT22;8843;48.838;9.324;2023-04-25T01:56:06;13.10;77.30
17452;DHT22;8843;48.838;9.324;2023-04-25T01:58:33;13.10;77.40
17452;DHT22;8843;48.838;9.324;2023-04-25T02:01:00;13.10;77.40
17452;DHT22;8843;48.838;9.324;2023-04-25T02:03:27;13.10;77.40
17452;DHT22;8843;48.838;9.324;2023-04-25T02:05:54;13.10;78.10
17452;DHT22;8843;48.838;9.324;2023-04-25T02:08:21;13.10;77.40
17452;DHT22;8843;48.838;9.324;2023-04-25T02:10:48;13.10;78.20
17452;DHT22;8843;48.838;9.324;2023-04-25T02:13:16;13.10;77.50
17452;DHT22;8843;48.838;9.324;2023-04-25T02:15:43;13.10;77.40
17452;DHT22;8843;48.838;9.324;2023-04-25T02:18:10;13.10;77.10
17452;DHT22;8843;48.838;9.324;2023-04-25T02:20:37;13.10;78.10
17452;DHT22;8843;48.838;9.324;2023-04-25T02:23:04;13.10;77.60
17452;DHT22;8843;48.838;9.324;2023-04-25T02:25:30;13.10;77.40
17452;DHT22;8843;48.838;9.324;2023-04-25T02:27:57;13.10;77.40
17452;DHT22;8843;48.838;9.324;2023-04-25T02:30:26;13.10;77.40
17452;DHT22;8843;48.838;9.324;2023-04-25T02:32:52;13.10;77.40
17452;DHT22;8843;48.838;9.324;2023-04-25T02:35:19;13.10;77.40
17452;DHT22;8843;48.838;9.324;2023-04-25T02:37:46;13.10;77.40
17452;DHT22;8843;48.838;9.324;2023-04-25T02:40:13;13.10;77.40
17452;DHT22;8843;48.838;9.324;2023-04-25T02:42:40;13.10;77.50
17452;DHT22;8843;48.838;9.324;2023-04-25T02:45:08;13.10;78.00
17452;DHT22;8843;48.838;9.324;2023-04-25T02:47:36;13.10;77.40
17452;DHT22;8843;48.838;9.324;2023-04-25T02:50:04;13.00;77.30
17452;DHT22;8843;48.838;9.324;2023-04-25T02:52:31;13.00;77.30
17452;DHT22;8843;48.838;9.324;2023-04-25T02:54:58;13.00;78.10
17452;DHT22;8843;48.838;9.324;2023-04-25T02:57:24;13.00;77.40
17452;DHT22;8843;48.838;9.324;2023-04-25T02:59:51;13.10;77.50
17452;DHT22;8843;48.838;9.324;2023-04-25T03:02:18;13.00;77.30
17452;DHT22;8843;48.838;9.324;2023-04-25T03:04:47;13.00;78.10
17452;DHT22;8843;48.838;9.324;2023-04-25T03:07:14;13.00;77.40
17452;DHT22;8843;48.838;9.324;2023-04-25T03:09:41;13.00;77.50
17452;DHT22;8843;48.838;9.324;2023-04-25T03:12:08;13.00;77.40
17452;DHT22;8843;48.838;9.324;2023-04-25T03:14:35;13.00;78.20
17452;DHT22;8843;48.838;9.324;2023-04-25T03:17:02;13.00;77.50
17452;DHT22;8843;48.838;9.324;2023-04-25T03:19:29;13.00;77.50
17452;DHT22;8843;48.838;9.324;2023-04-25T03:21:57;13.00;77.50
17452;DHT22;8843;48.838;9.324;2023-04-25T03:24:24;13.00;78.20
17452;DHT22;8843;48.838;9.324;2023-04-25T03:26:52;13.00;77.50
17452;DHT22;8843;48.838;9.324;2023-04-25T03:29:19;13.00;77.50
17452;DHT22;8843;48.838;9.324;2023-04-25T03:31:49;13.00;77.50
17452;DHT22;8843;48.838;9.324;2023-04-25T03:34:16;13.00;77.50
17452;DHT22;8843;48.838;9.324;2023-04-25T03:36:43;13.00;77.50
17452;DHT22;8843;48.838;9.324;2023-04-25T03:39:11;13.00;77.50
17452;DHT22;8843;48.838;9.324;2023-04-25T03:41:38;13.00;77.50
17452;DHT22;8843;48.838;9.324;2023-04-25T03:44:05;13.00;77.60
17452;DHT22;8843;48.838;9.324;2023-04-25T03:46:32;13.00;77.60
17452;DHT22;8843;48.838;9.324;2023-04-25T03:48:59;13.00;77.60
17452;DHT22;8843;48.838;9.324;2023-04-25T03:51:26;13.00;77.60
17452;DHT22;8843;48.838;9.324;2023-04-25T03:53:53;13.00;77.60
17452;DHT22;8843;48.838;9.324;2023-04-25T03:56:21;13.00;77.60
17452;DHT22;8843;48.838;9.324;2023-04-25T03:58:48;13.00;78.40
17452;DHT22;8843;48.838;9.324;2023-04-25T04:01:15;13.00;77.60
17452;DHT22;8843;48.838;9.324;2023-04-25T04:03:41;13.00;77.70
17452;DHT22;8843;48.838;9.324;2023-04-25T04:06:09;12.90;77.90
17452;DHT22;8843;48.838;9.324;2023-04-25T04:08:36;12.90;77.60
17452;DHT22;8843;48.838;9.324;2023-04-25T04:11:03;12.90;78.40
17452;DHT22;8843;48.838;9.324;2023-04-25T04:13:31;12.90;77.20
17452;DHT22;8843;48.838;9.324;2023-04-25T04:15:58;12.90;77.40
17452;DHT22;8843;48.838;9.324;2023-04-25T04:18:25;12.90;77.70
17452;DHT22;8843;48.838;9.324;2023-04-25T04:20:52;12.90;77.60
17452;DHT22;8843;48.838;9.324;2023-04-25T04:23:19;12.90;77.30
17452;DHT22;8843;48.838;9.324;2023-04-25T04:25:48;12.90;77.00
17452;DHT22;8843;48.838;9.324;2023-04-25T04:28:15;12.90;78.40
17452;DHT22;8843;48.838;9.324;2023-04-25T04:30:44;12.90;77.60
17452;DHT22;8843;48.838;9.324;2023-04-25T04:33:12;12.90;77.50
17452;DHT22;8843;48.838;9.324;2023-04-25T04:35:40;12.90;77.50
17452;DHT22;8843;48.838;9.324;2023-04-25T04:38:08;12.90;77.60
17452;DHT22;8843;48.838;9.324;2023-04-25T04:40:36;12.90;77.70
17452;DHT22;8843;48.838;9.324;2023-04-25T04:43:03;12.90;77.50
17452;DHT22;8843;48.838;9.324;2023-04-25T04:45:31;12.80;77.60
17452;DHT22;8843;48.838;9.324;2023-04-25T04:48:00;12.90;77.70
17452;DHT22;8843;48.838;9.324;2023-04-25T04:50:27;12.20;71.80
17452;DHT22;8843;48.838;9.324;2023-04-25T04:52:54;12.20;82.10
17452;DHT22;8843;48.838;9.324;2023-04-25T04:55:21;12.90;81.50
17452;DHT22;8843;48.838;9.324;2023-04-25T04:57:48;13.00;80.20
17452;DHT22;8843;48.838;9.324;2023-04-25T05:00:15;13.00;79.00
17452;DHT22;8843;48.838;9.324;2023-04-25T05:02:43;12.90;78.70
17452;DHT22;8843;48.838;9.324;2023-04-25T05:05:12;12.90;79.50
17452;DHT22;8843;48.838;9.324;2023-04-25T05:07:38;12.90;78.70
17452;DHT22;8843;48.838;9.324;2023-04-25T05:10:07;12.90;80.00
17452;DHT22;8843;48.838;9.324;2023-04-25T05:12:34;13.00;78.70
17452;DHT22;8843;48.838;9.324;2023-04-25T05:15:01;13.00;78.50
17452;DHT22;8843;48.838;9.324;2023-04-25T05:17:28;13.00;78.40
17452;DHT22;8843;48.838;9.324;2023-04-25T05:19:55;12.90;78.40
17452;DHT22;8843;48.838;9.324;2023-04-25T05:22:23;12.90;78.30
17452;DHT22;8843;48.838;9.324;2023-04-25T05:24:50;12.90;78.50
17452;DHT22;8843;48.838;9.324;2023-04-25T05:27:17;12.90;78.50
17452;DHT22;8843;48.838;9.324;2023-04-25T05:29:45;12.90;78.40
17452;DHT22;8843;48.838;9.324;2023-04-25T05:32:13;12.90;78.50
17452;DHT22;8843;48.838;9.324;2023-04-25T05:34:41;12.90;78.40
17452;DHT22;8843;48.838;9.324;2023-04-25T05:37:08;12.90;78.50
17452;DHT22;8843;48.838;9.324;2023-04-25T05:39:36;12.90;78.40
17452;DHT22;8843;48.838;9.324;2023-04-25T05:42:03;12.80;78.20
17452;DHT22;8843;48.838;9.324;2023-04-25T05:44:30;12.80;77.20
17452;DHT22;8843;48.838;9.324;2023-04-25T05:46:57;12.80;78.10
17452;DHT22;8843;48.838;9.324;2023-04-25T05:49:24;12.80;78.10
17452;DHT22;8843;48.838;9.324;2023-04-25T05:51:51;12.80;75.60
17452;DHT22;8843;48.838;9.324;2023-04-25T05:54:18;12.80;81.80
17452;DHT22;8843;48.838;9.324;2023-04-25T05:56:47;13.40;78.80
17452;DHT22;8843;48.838;9.324;2023-04-25T05:59:14;13.60;76.80
17452;DHT22;8843;48.838;9.324;2023-04-25T06:01:42;12.40;72.30
17452;DHT22;8843;48.838;9.324;2023-04-25T06:04:08;12.70;78.50
17452;DHT22;8843;48.838;9.324;2023-04-25T06:06:35;12.00;74.30
17452;DHT22;8843;48.838;9.324;2023-04-25T06:09:02;11.80;75.50
17452;DHT22;8843;48.838;9.324;2023-04-25T06:11:29;11.60;75.70
17452;DHT22;8843;48.838;9.324;2023-04-25T06:13:58;11.70;76.90
17452;DHT22;8843;48.838;9.324;2023-04-25T06:16:25;11.60;75.90
17452;DHT22;8843;48.838;9.324;2023-04-25T06:18:52;11.50;76.70
17452;DHT22;8843;48.838;9.324;2023-04-25T06:21:18;11.50;76.40
17452;DHT22;8843;48.838;9.324;2023-04-25T06:23:45;11.50;77.60
17452;DHT22;8843;48.838;9.324;2023-04-25T06:26:12;11.50;77.70
17452;DHT22;8843;48.838;9.324;2023-04-25T06:28:39;11.50;77.30
17452;DHT22;8843;48.838;9.324;2023-04-25T06:31:07;11.50;77.00
17452;DHT22;8843;48.838;9.324;2023-04-25T06:33:34;11.60;80.20
17452;DHT22;8843;48.838;9.324;2023-04-25T06:36:01;12.10;80.00
17452;DHT22;8843;48.838;9.324;2023-04-25T06:38:28;12.30;78.50
17452;DHT22;8843;48.838;9.324;2023-04-25T06:40:55;12.40;78.40
17452;DHT22;8843;48.838;9.324;2023-04-25T06:43:22;12.40;76.00
17452;DHT22;8843;48.838;9.324;2023-04-25T06:45:49;11.70;76.50
17452;DHT22;8843;48.838;9.324;2023-04-25T06:48:17;11.50;77.30
17452;DHT22;8843;48.838;9.324;2023-04-25T06:50:44;11.60;77.80
17452;DHT22;8843;48.838;9.324;2023-04-25T06:53:11;11.50;77.40
17452;DHT22;8843;48.838;9.324;2023-04-25T06:55:38;11.60;78.30
17452;DHT22;8843;48.838;9.324;2023-04-25T06:58:05;11.60;77.90
17452;DHT22;8843;48.838;9.324;2023-04-25T07:00:31;11.60;77.50
17452;DHT22;8843;48.838;9.324;2023-04-25T07:02:59;11.60;77.70
17452;DHT22;8843;48.838;9.324;2023-04-25T07:05:27;11.60;78.40
17452;DHT22;8843;48.838;9.324;2023-04-25T07:07:54;11.70;77.60
17452;DHT22;8843;48.838;9.324;2023-04-25T07:10:21;11.60;77.20
17452;DHT22;8843;48.838;9.324;2023-04-25T07:12:48;11.60;76.90
17452;DHT22;8843;48.838;9.324;2023-04-25T07:15:14;11.60;76.70
17452;DHT22;8843;48.838;9.324;2023-04-25T07:17:41;11.60;76.70
17452;DHT22;8843;48.838;9.324;2023-04-25T07:20:09;11.70;76.50
17452;DHT22;8843;48.838;9.324;2023-04-25T07:22:37;11.70;76.30
17452;DHT22;8843;48.838;9.324;2023-04-25T07:25:05;11.80;76.00
17452;DHT22;8843;48.838;9.324;2023-04-25T07:27:32;11.80;76.00
17452;DHT22;8843;48.838;9.324;2023-04-25T07:29:59;11.80;76.60
17452;DHT22;8843;48.838;9.324;2023-04-25T07:32:26;11.70;75.80
17452;DHT22;8843;48.838;9.324;2023-04-25T07:34:53;11.70;75.70
17452;DHT22;8843;48.838;9.324;2023-04-25T07:37:20;11.70;75.60
17452;DHT22;8843;48.838;9.324;2023-04-25T07:39:48;11.80;75.50
17452;DHT22;8843;48.838;9.324;2023-04-25T07:42:15;11.80;75.20
17452;DHT22;8843;48.838;9.324;2023-04-25T07:44:42;11.70;75.10
17452;DHT22;8843;48.838;9.324;2023-04-25T07:47:09;11.70;75.30
17452;DHT22;8843;48.838;9.324;2023-04-25T07:49:36;11.60;75.30
17452;DHT22;8843;48.838;9.324;2023-04-25T07:52:04;11.60;75.20
17452;DHT22;8843;48.838;9.324;2023-04-25T07:54:32;11.60;75.30
17452;DHT22;8843;48.838;9.324;2023-04-25T07:57:00;11.60;75.30
17452;DHT22;8843;48.838;9.324;2023-04-25T07:59:27;11.60;75.90
17452;DHT22;8843;48.838;9.324;2023-04-25T08:01:54;11.60;75.10
17452;DHT22;8843;48.838;9.324;2023-04-25T08:04:22;11.70;77.40
17452;DHT22;8843;48.838;9.324;2023-04-25T08:06:49;12.30;78.80
17452;DHT22;8843;48.838;9.324;2023-04-25T08:09:16;12.50;78.00
17452;DHT22;8843;48.838;9.324;2023-04-25T08:11:43;12.60;77.90
17452;DHT22;8843;48.838;9.324;2023-04-25T08:14:11;12.60;77.80
17452;DHT22;8843;48.838;9.324;2023-04-25T08:16:39;12.60;77.80
17452;DHT22;8843;48.838;9.324;2023-04-25T08:19:06;12.60;77.90
17452;DHT22;8843;48.838;9.324;2023-04-25T08:21:32;12.60;77.90
17452;DHT22;8843;48.838;9.324;2023-04-25T08:23:59;12.60;77.90
17452;DHT22;8843;48.838;9.324;2023-04-25T08:26:27;12.60;78.70
17452;DHT22;8843;48.838;9.324;2023-04-25T08:28:54;12.60;78.00
17452;DHT22;8843;48.838;9.324;2023-04-25T08:31:23;12.60;78.10
17452;DHT22;8843;48.838;9.324;2023-04-25T08:33:49;12.60;78.20
17452;DHT22;8843;48.838;9.324;2023-04-25T08:36:17;12.60;78.40
17452;DHT22;8843;48.838;9.324;2023-04-25T08:38:44;12.60;78.40
17452;DHT22;8843;48.838;9.324;2023-04-25T08:41:12;12.60;79.20
17452;DHT22;8843;48.838;9.324;2023-04-25T08:43:42;12.60;78.50
17452;DHT22;8843;48.838;9.324;2023-04-25T08:46:09;12.50;78.50
17452;DHT22;8843;48.838;9.324;2023-04-25T08:48:40;12.60;78.60
17452;DHT22;8843;48.838;9.324;2023-04-25T08:51:10;12.60;78.80
17452;DHT22;8843;48.838;9.324;2023-04-25T08:53:40;12.60;78.80
17452;DHT22;8843;48.838;9.324;2023-04-25T08:56:10;12.50;78.90
17452;DHT22;8843;48.838;9.324;2023-04-25T08:58:39;12.50;78.90
17452;DHT22;8843;48.838;9.324;2023-04-25T09:01:06;12.50;79.10
17452;DHT22;8843;48.838;9.324;2023-04-25T09:03:34;12.50;79.10
17452;DHT22;8843;48.838;9.324;2023-04-25T09:06:03;12.60;79.20
17452;DHT22;8843;48.838;9.324;2023-04-25T09:08:30;12.50;79.10
17452;DHT22;8843;48.838;9.324;2023-04-25T09:10:57;12.60;79.20
17452;DHT22;8843;48.838;9.324;2023-04-25T09:13:25;12.50;79.10
17452;DHT22;8843;48.838;9.324;2023-04-25T09:15:54;12.50;79.20
17452;DHT22;8843;48.838;9.324;2023-04-25T09:18:24;12.50;79.20
17452;DHT22;8843;48.838;9.324;2023-04-25T09:20:52;12.50;79.30
17452;DHT22;8843;48.838;9.324;2023-04-25T09:23:22;12.50;79.30
17452;DHT22;8843;48.838;9.324;2023-04-25T09:25:50;12.50;79.50
17452;DHT22;8843;48.838;9.324;2023-04-25T09:28:23;12.50;79.40
17452;DHT22;8843;48.838;9.324;2023-04-25T09:30:55;12.50;79.50
17452;DHT22;8843;48.838;9.324;2023-04-25T09:33:27;12.50;79.40
17452;DHT22;8843;48.838;9.324;2023-04-25T09:36:02;12.50;79.60
17452;DHT22;8843;48.838;9.324;2023-04-25T09:38:32;12.50;79.60
17452;DHT22;8843;48.838;9.324;2023-04-25T09:40:59;12.50;79.60
17452;DHT22;8843;48.838;9.324;2023-04-25T09:43:27;12.50;79.70
17452;DHT22;8843;48.838;9.324;2023-04-25T09:45:55;12.50;79.70
17452;DHT22;8843;48.838;9.324;2023-04-25T09:48:25;12.40;79.80
17452;DHT22;8843;48.838;9.324;2023-04-25T09:51:04;12.50;79.80
17452;DHT22;8843;48.838;9.324;2023-04-25T09:53:33;12.50;79.90
17452;DHT22;8843;48.838;9.324;2023-04-25T09:56:03;12.50;79.80
17452;DHT22;8843;48.838;9.324;2023-04-25T09:58:31;12.50;80.00
17452;DHT22;8843;48.838;9.324;2023-04-25T10:01:00;12.50;79.90
17452;DHT22;8843;48.838;9.324;2023-04-25T10:03:29;12.50;80.00
17452;DHT22;8843;48.838;9.324;2023-04-25T10:05:58;12.50;80.00
17452;DHT22;8843;48.838;9.324;2023-04-25T10:08:28;12.50;80.00
17452;DHT22;8843;48.838;9.324;2023-04-25T10:11:00;12.50;80.10
17452;DHT22;8843;48.838;9.324;2023-04-25T10:13:28;12.40;80.00
17452;DHT22;8843;48.838;9.324;2023-04-25T10:15:57;12.50;80.80
17452;DHT22;8843;48.838;9.324;2023-04-25T10:18:25;12.40;80.20
17452;DHT22;8843;48.838;9.324;2023-04-25T10:20:54;12.40;80.10
17452;DHT22;8843;48.838;9.324;2023-04-25T10:23:21;12.40;80.50
17452;DHT22;8843;48.838;9.324;2023-04-25T10:25:49;12.50;81.10
17452;DHT22;8843;48.838;9.324;2023-04-25T10:28:18;12.40;80.20
17452;DHT22;8843;48.838;9.324;2023-04-25T10:31:07;12.40;80.20
17452;DHT22;8843;48.838;9.324;2023-04-25T10:33:35;12.40;80.30
17452;DHT22;8843;48.838;9.324;2023-04-25T10:36:10;12.40;80.40
17452;DHT22;8843;48.838;9.324;2023-04-25T10:38:37;12.40;80.30
17452;DHT22;8843;48.838;9.324;2023-04-25T10:41:05;12.40;80.40
17452;DHT22;8843;48.838;9.324;2023-04-25T10:43:36;12.40;80.30
17452;DHT22;8843;48.838;9.324;2023-04-25T10:46:13;12.40;80.20
17452;DHT22;8843;48.838;9.324;2023-04-25T10:48:48;12.40;80.30
17452;DHT22;8843;48.838;9.324;2023-04-25T10:51:20;12.40;80.50
17452;DHT22;8843;48.838;9.324;2023-04-25T10:53:57;12.40;80.40
17452;DHT22;8843;48.838;9.324;2023-04-25T10:56:26;12.40;80.50
17452;DHT22;8843;48.838;9.324;2023-04-25T10:59:05;12.40;80.50
17452;DHT22;8843;48.838;9.324;2023-04-25T11:01:37;12.40;80.50
17452;DHT22;8843;48.838;9.324;2023-04-25T11:04:04;12.40;80.50
17452;DHT22;8843;48.838;9.324;2023-04-25T11:06:41;12.40;80.50
17452;DHT22;8843;48.838;9.324;2023-04-25T11:09:11;12.40;81.30
17452;DHT22;8843;48.838;9.324;2023-04-25T11:11:39;12.40;80.50
17452;DHT22;8843;48.838;9.324;2023-04-25T11:14:07;12.40;80.50
17452;DHT22;8843;48.838;9.324;2023-04-25T11:16:34;12.40;80.50
17452;DHT22;8843;48.838;9.324;2023-04-25T11:19:01;12.40;80.60
17452;DHT22;8843;48.838;9.324;2023-04-25T11:21:30;12.40;81.30
17452;DHT22;8843;48.838;9.324;2023-04-25T11:23:59;12.40;80.60
17452;DHT22;8843;48.838;9.324;2023-04-25T11:26:26;12.40;80.60
17452;DHT22;8843;48.838;9.324;2023-04-25T11:28:57;12.40;80.70
17452;DHT22;8843;48.838;9.324;2023-04-25T11:31:26;12.40;80.70
17452;DHT22;8843;48.838;9.324;2023-04-25T11:33:53;12.40;80.60
17452;DHT22;8843;48.838;9.324;2023-04-25T11:36:22;12.40;80.50
17452;DHT22;8843;48.838;9.324;2023-04-25T11:38:49;12.40;80.70
17452;DHT22;8843;48.838;9.324;2023-04-25T11:41:17;12.40;80.70
17452;DHT22;8843;48.838;9.324;2023-04-25T11:43:44;12.40;80.70
17452;DHT22;8843;48.838;9.324;2023-04-25T11:46:11;12.40;80.70
17452;DHT22;8843;48.838;9.324;2023-04-25T11:48:40;12.40;80.80
17452;DHT22;8843;48.838;9.324;2023-04-25T11:51:08;12.40;80.80
17452;DHT22;8843;48.838;9.324;2023-04-25T11:53:35;12.40;80.90
17452;DHT22;8843;48.838;9.324;2023-04-25T11:56:02;12.40;81.00
17452;DHT22;8843;48.838;9.324;2023-04-25T11:58:56;12.30;81.30
17452;DHT22;8843;48.838;9.324;2023-04-25T12:01:28;12.30;81.20
17452;DHT22;8843;48.838;9.324;2023-04-25T12:03:57;12.30;81.10
17452;DHT22;8843;48.838;9.324;2023-04-25T12:06:26;12.30;81.10
17452;DHT22;8843;48.838;9.324;2023-04-25T12:09:03;12.30;81.90
17452;DHT22;8843;48.838;9.324;2023-04-25T12:11:30;12.30;81.40
17452;DHT22;8843;48.838;9.324;2023-04-25T12:14:02;12.30;81.30
17452;DHT22;8843;48.838;9.324;2023-04-25T12:16:30;12.30;81.40
17452;DHT22;8843;48.838;9.324;2023-04-25T12:19:07;12.30;81.30
17452;DHT22;8843;48.838;9.324;2023-04-25T12:21:34;12.30;81.50
17452;DHT22;8843;48.838;9.324;2023-04-25T12:24:11;12.30;81.60
17452;DHT22;8843;48.838;9.324;2023-04-25T12:26:47;12.30;81.60
17452;DHT22;8843;48.838;9.324;2023-04-25T12:29:16;12.30;81.90
17452;DHT22;8843;48.838;9.324;2023-04-25T12:31:43;12.30;82.00
17452;DHT22;8843;48.838;9.324;2023-04-25T12:34:11;12.30;82.00
17452;DHT22;8843;48.838;9.324;2023-04-25T12:36:38;12.30;82.00
17452;DHT22;8843;48.838;9.324;2023-04-25T12:39:05;12.30;81.90
17452;DHT22;8843;48.838;9.324;2023-04-25T12:41:33;12.30;82.70
17452;DHT22;8843;48.838;9.324;2023-04-25T12:44:00;12.20;82.10
17452;DHT22;8843;48.838;9.324;2023-04-25T12:46:27;12.20;82.00
17452;DHT22;8843;48.838;9.324;2023-04-25T12:48:54;12.30;82.80
17452;DHT22;8843;48.838;9.324;2023-04-25T12:51:23;12.30;82.00
17452;DHT22;8843;48.838;9.324;2023-04-25T12:53:51;12.20;81.90
17452;DHT22;8843;48.838;9.324;2023-04-25T12:56:18;13.00;83.40
17452;DHT22;8843;48.838;9.324;2023-04-25T12:58:46;13.40;80.80
17452;DHT22;8843;48.838;9.324;2023-04-25T13:01:13;13.30;80.20
17452;DHT22;8843;48.838;9.324;2023-04-25T13:03:40;13.00;82.20
17452;DHT22;8843;48.838;9.324;2023-04-25T13:06:07;12.70;83.10
17452;DHT22;8843;48.838;9.324;2023-04-25T13:08:36;12.50;83.00
17452;DHT22;8843;48.838;9.324;2023-04-25T13:11:04;12.40;84.00
17452;DHT22;8843;48.838;9.324;2023-04-25T13:13:31;12.40;83.80
17452;DHT22;8843;48.838;9.324;2023-04-25T13:16:00;12.40;84.40
17452;DHT22;8843;48.838;9.324;2023-04-25T13:18:27;12.40;84.30
17452;DHT22;8843;48.838;9.324;2023-04-25T13:20:54;12.30;83.40
17452;DHT22;8843;48.838;9.324;2023-04-25T13:23:21;12.30;83.60
17452;DHT22;8843;48.838;9.324;2023-04-25T13:25:50;12.30;82.80
17452;DHT22;8843;48.838;9.324;2023-04-25T13:28:16;12.30;89.20
17452;DHT22;8843;48.838;9.324;2023-04-25T13:30:44;12.40;87.90
17452;DHT22;8843;48.838;9.324;2023-04-25T13:33:11;12.50;87.70
17452;DHT22;8843;48.838;9.324;2023-04-25T13:35:38;12.50;86.90
17452;DHT22;8843;48.838;9.324;2023-04-25T13:38:05;12.40;85.50
17452;DHT22;8843;48.838;9.324;2023-04-25T13:40:32;12.30;85.50
17452;DHT22;8843;48.838;9.324;2023-04-25T13:43:01;12.30;84.60
17452;DHT22;8843;48.838;9.324;2023-04-25T13:45:28;12.40;85.90
17452;DHT22;8843;48.838;9.324;2023-04-25T13:47:55;12.40;85.80
17452;DHT22;8843;48.838;9.324;2023-04-25T13:50:22;12.40;85.70
17452;DHT22;8843;48.838;9.324;2023-04-25T13:52:48;12.40;86.20
17452;DHT22;8843;48.838;9.324;2023-04-25T13:55:15;12.30;85.10
17452;DHT22;8843;48.838;9.324;2023-04-25T13:57:42;12.40;85.70
17452;DHT22;8843;48.838;9.324;2023-04-25T14:00:12;12.40;85.30
17452;DHT22;8843;48.838;9.324;2023-04-25T14:02:39;12.30;84.80
17452;DHT22;8843;48.838;9.324;2023-04-25T14:05:06;12.40;86.00
17452;DHT22;8843;48.838;9.324;2023-04-25T14:07:34;12.40;85.30
17452;DHT22;8843;48.838;9.324;2023-04-25T14:10:02;12.40;86.00
17452;DHT22;8843;48.838;9.324;2023-04-25T14:12:29;12.50;86.70
17452;DHT22;8843;48.838;9.324;2023-04-25T14:14:56;12.60;86.20
17452;DHT22;8843;48.838;9.324;2023-04-25T14:17:25;12.60;86.00
17452;DHT22;8843;48.838;9.324;2023-04-25T14:19:51;12.70;86.00
17452;DHT22;8843;48.838;9.324;2023-04-25T14:22:18;12.60;85.20
17452;DHT22;8843;48.838;9.324;2023-04-25T14:24:45;12.60;84.10
17452;DHT22;8843;48.838;9.324;2023-04-25T14:27:12;12.60;83.90
17452;DHT22;8843;48.838;9.324;2023-04-25T14:29:39;12.60;83.80
17452;DHT22;8843;48.838;9.324;2023-04-25T14:32:07;12.50;83.20
17452;DHT22;8843;48.838;9.324;2023-04-25T14:34:35;12.50;83.90
17452;DHT22;8843;48.838;9.324;2023-04-25T14:37:02;12.60;84.20
17452;DHT22;8843;48.838;9.324;2023-04-25T14:39:29;12.70;84.20
17452;DHT22;8843;48.838;9.324;2023-04-25T14:41:56;12.70;83.70
17452;DHT22;8843;48.838;9.324;2023-04-25T14:44:23;12.80;84.20
17452;DHT22;8843;48.838;9.324;2023-04-25T14:46:50;12.90;83.30
17452;DHT22;8843;48.838;9.324;2023-04-25T14:49:17;12.80;83.20
17452;DHT22;8843;48.838;9.324;2023-04-25T14:51:45;12.90;82.50
17452;DHT22;8843;48.838;9.324;2023-04-25T14:54:12;12.90;82.70
17452;DHT22;8843;48.838;9.324;2023-04-25T14:56:39;12.80;81.70
17452;DHT22;8843;48.838;9.324;2023-04-25T14:59:06;12.80;81.40
17452;DHT22;8843;48.838;9.324;2023-04-25T15:01:33;12.80;81.40
17452;DHT22;8843;48.838;9.324;2023-04-25T15:04:00;12.70;81.80
17452;DHT22;8843;48.838;9.324;2023-04-25T15:06:27;12.80;82.10
17452;DHT22;8843;48.838;9.324;2023-04-25T15:08:57;12.80;81.80
17452;DHT22;8843;48.838;9.324;2023-04-25T15:11:24;12.80;81.20
17452;DHT22;8843;48.838;9.324;2023-04-25T15:13:51;12.80;81.30
17452;DHT22;8843;48.838;9.324;2023-04-25T15:16:18;12.80;81.30
17452;DHT22;8843;48.838;9.324;2023-04-25T15:18:44;12.80;80.70
17452;DHT22;8843;48.838;9.324;2023-04-25T15:21:11;12.90;81.00
17452;DHT22;8843;48.838;9.324;2023-04-25T15:23:38;12.80;80.10
17452;DHT22;8843;48.838;9.324;2023-04-25T15:26:07;12.70;80.70
17452;DHT22;8843;48.838;9.324;2023-04-25T15:28:34;12.80;80.40
17452;DHT22;8843;48.838;9.324;2023-04-25T15:31:01;12.70;80.00
17452;DHT22;8843;48.838;9.324;2023-04-25T15:33:28;12.80;79.30
17452;DHT22;8843;48.838;9.324;2023-04-25T15:35:55;12.80;79.20
17452;DHT22;8843;48.838;9.324;2023-04-25T15:38:23;12.70;78.50
17452;DHT22;8843;48.838;9.324;2023-04-25T15:40:51;12.70;78.80
17452;DHT22;8843;48.838;9.324;2023-04-25T15:43:20;12.60;77.90
17452;DHT22;8843;48.838;9.324;2023-04-25T15:45:46;12.60;78.20
17452;DHT22;8843;48.838;9.324;2023-04-25T15:48:13;12.60;78.80